ホニアラ の空港の天気 - METARとTAF

ホニアラ国際空港 ( AGGH / HIR ) - ソロモン諸島 ガダルカナル島ホニアラ
飛行場実況気象(Metar)
観測時間09/23 10:00 SBT (09/22 23:00 UTC)
風向・風速北東 4m/s
視程10km以上
天気現象
少しの雲 雲底高度 520m
全天の8割程度の雲 雲底高度 880m
気温26℃
湿度94%
気圧1011hPa
METARAGGH 222300Z 05008KT 9999 -D FEW017 BKN029 26/25 Q1011
過去の天気等 Google飛行場航空写真 Wunderground天気予報

過去48時間のMETAR

飛行場予報(TAF)
発表時間: 9/23 10:10 SBT (9/22 23:10 UTC)
予報対象時間: 23日11時 SBT ~ 24日11時 SBT
風向・風速不定 2m/s
視程10km以上
少しの雲 雲底高度 580m
全天の4割程度の雲 雲底高度 3050m
23日14時 SBT から
風向・風速東 6m/s
視程10km以上
天気現象弱いしゅう雨
全天の4割程度の雲 雲底高度 550m
全天の8割程度の雲 雲底高度 910m
TAF AGGH 222310Z 2300/2324 VRB03KT 9999 FEW019 SCT100
FM230300 09012KT 9999 -SHRA SCT018 BKN030 INTER 2300/2304 3000 TSSH BKN016 FEW018CB T 28 29 30 27 Q 1010 1008 1008 1010